Search for airport 
image banner adimage banner adimage banner ad
image banner ad

KCRQ - Mc Clellan-Palomar

Located in Carlsbad, United States

ICAO - CRQ, IATA - CLD

Data provided by Airmate  

General information

Coordinates: N33°7'42" W117°16'48"
Elevation is 331 feet MSL.
Magnetic variation is 14° East
View others Airports in California

Operational data

Special qualification required
Current time UTC:
Current local time:
Weather
METAR: KCRQ 221353Z AUTO 00000KT 7SM OVC009 17/14 A2992 RMK AO2 SLP131 T01720144
TAF: KCRQ 221137Z 2212/2312 VRB04KT P6SM OVC008 FM221700 25008KT P6SM SCT012 BKN100 FM230400 VRB03KT P6SM OVC007
View NOTAMs / SUP AIP / TFR affecting this airport [VIEW]
Communications frequencies: [VIEW]

Runways:

RWY identifierQFULength (ft)Width (ft)SurfaceLDA (ft)
0679°4897150ASPH4600
24259°4897150ASPH4897

Airport contact information

Address: Carlsbad United States

Other aviation service providers

Flight schools

Pinnacle Aviation Academy

Pinnacle Aviation Academy

Civic Helicopters, Inc.

Civic Helicopters, Inc.

Pacific Coast Flyers

Pacific Coast Flyers
info@pcflyers.org+1(760)845-9713

Loft

Loft
info@loft.aero+1(760)476-0890

Plus One Flyers - Crq

Plus One Flyers - Crq

Atp Flight School (800-All-Atps)

Atp Flight School (800-All-Atps)
info@allatps.com+1(800)255-2877

Blade & Wing Aviation

Blade & Wing Aviation

Satellite view of KCRQ